Coarsegold, California
Current Conditions -  °F | °C
As of 3:53 PM on Wednesday 22 Oct 2014 (Local Time) from KMAE Reporting Station
Clear Clear  
Wind Chill: 76°   Ceiling: Unl
Heat Index: 76°   Visibility: 10mi
Dew Point: 43°   Wind: 6mph
Humidity: 31%   Direction: 290°WNW
Pressure: 30.02"   Gusts: NA
Location:  37.26°N, 119.7°W
Report Text: KMAE 222253Z AUTO 29005KT 10SM CLR 24/06 A3002 RMK AO2 SLP163 T02440061
Loading
Personal Weather Stations






























Interactive Weather Map
Tropical Storm Tracking
New forecast layout! Learn more

10-Day Weather Forecast

Advertisements
Track Severe Weather on mobile